createdAt,value
2018-08-13T00:01:17.947Z,63.72
2018-08-13T00:03:46.859Z,64.18
2018-08-13T00:06:15.653Z,64.32
2018-08-13T00:08:44.597Z,64.22
2018-08-13T00:11:13.487Z,64.97
2018-08-13T00:13:42.506Z,64.96
2018-08-13T00:16:11.328Z,64.69
2018-08-13T00:18:40.199Z,64.80
2018-08-13T00:21:09.140Z,64.95
2018-08-13T00:23:37.909Z,64.64
2018-08-13T00:26:06.872Z,64.53
2018-08-13T00:28:35.664Z,66.09
2018-08-13T00:31:05.120Z,66.47
2018-08-13T00:33:34.017Z,65.96
2018-08-13T00:36:02.936Z,65.30
2018-08-13T00:38:31.816Z,64.55
2018-08-13T00:41:00.712Z,64.18
2018-08-13T00:43:29.555Z,64.61
2018-08-13T00:45:58.571Z,64.97
2018-08-13T00:48:27.456Z,65.63
2018-08-13T00:50:56.381Z,65.83
2018-08-13T00:53:25.191Z,65.94
2018-08-13T00:55:54.049Z,65.84
2018-08-13T00:58:23.009Z,65.64
2018-08-13T01:00:51.925Z,65.80
2018-08-13T01:03:20.814Z,65.95
2018-08-13T01:05:49.672Z,65.46
2018-08-13T01:08:18.444Z,65.41
2018-08-13T01:10:47.439Z,65.89
2018-08-13T01:13:16.317Z,65.19
2018-08-13T01:15:45.256Z,65.80
2018-08-13T01:18:14.119Z,65.56
2018-08-13T01:20:42.978Z,65.94
2018-08-13T01:23:12.270Z,65.54
2018-08-13T01:25:41.136Z,65.33
2018-08-13T01:28:10.041Z,65.49
2018-08-13T01:30:38.892Z,66.82
2018-08-13T01:33:07.808Z,68.43
2018-08-13T01:35:36.683Z,69.61
2018-08-13T01:38:05.562Z,70.84
2018-08-13T01:40:34.428Z,70.18
2018-08-13T01:43:03.259Z,70.12
2018-08-13T01:45:32.052Z,69.56
2018-08-13T01:48:01.044Z,71.59
2018-08-13T01:50:29.915Z,71.33
2018-08-13T01:52:58.799Z,71.79
2018-08-13T01:55:27.631Z,71.94
2018-08-13T01:57:56.546Z,71.35
2018-08-13T02:00:25.760Z,70.14
2018-08-13T02:02:54.615Z,70.35
2018-08-13T02:05:23.400Z,70.52
2018-08-13T02:07:52.387Z,69.89
2018-08-13T02:10:21.234Z,70.39
2018-08-13T02:12:50.242Z,69.05
2018-08-13T02:15:19.084Z,68.19
2018-08-13T02:17:47.996Z,68.84
2018-08-13T02:20:16.925Z,70.75
2018-08-13T02:22:45.705Z,72.31
2018-08-13T02:25:14.625Z,70.78
2018-08-13T02:27:43.508Z,71.25
2018-08-13T02:30:12.449Z,71.09
2018-08-13T02:32:41.367Z,72.52
2018-08-13T02:35:10.288Z,72.14
2018-08-13T02:37:39.668Z,71.54
2018-08-13T02:40:09.795Z,71.97
2018-08-13T02:42:38.669Z,72.75
2018-08-13T02:45:10.027Z,72.54
2018-08-13T02:47:38.972Z,73.36
2018-08-13T02:50:11.598Z,73.92
2018-08-13T02:52:40.657Z,74.74
2018-08-13T02:55:10.517Z,73.65
2018-08-13T02:57:39.424Z,73.34
2018-08-13T03:00:10.263Z,71.59
2018-08-13T03:02:39.799Z,70.05
2018-08-13T03:05:11.341Z,67.43
2018-08-13T03:07:40.653Z,68.94
2018-08-13T03:10:12.043Z,69.66
2018-08-13T03:12:41.543Z,70.75
2018-08-13T03:15:13.219Z,68.71
2018-08-13T03:17:42.217Z,68.22
2018-08-13T03:20:11.406Z,68.51
2018-08-13T03:22:40.399Z,65.47
2018-08-13T03:25:10.393Z,65.27
2018-08-13T03:27:39.249Z,63.09
2018-08-13T03:30:12.533Z,64.10
2018-08-13T03:32:41.800Z,64.15
2018-08-13T03:35:10.830Z,63.47
2018-08-13T03:37:40.120Z,63.55
2018-08-13T03:40:11.892Z,62.04
2018-08-13T03:42:41.059Z,62.61
2018-08-13T03:45:11.742Z,64.08
2018-08-13T03:47:40.899Z,63.02
2018-08-13T03:50:11.291Z,63.25
2018-08-13T03:52:40.719Z,61.20
2018-08-13T03:55:10.816Z,61.02
2018-08-13T03:57:40.348Z,63.15
2018-08-13T04:00:12.992Z,60.88
2018-08-13T04:02:42.119Z,59.76
2018-08-13T04:05:12.026Z,60.30
2018-08-13T04:07:40.960Z,61.20
2018-08-13T04:10:12.256Z,62.22
2018-08-13T04:12:42.314Z,61.93
2018-08-13T04:15:12.690Z,62.52
2018-08-13T04:17:42.052Z,61.53
2018-08-13T04:20:13.647Z,62.52
2018-08-13T04:22:43.108Z,61.21
2018-08-13T04:25:11.961Z,62.78
2018-08-13T04:27:41.344Z,62.29
2018-08-13T04:30:16.381Z,62.40
2018-08-13T04:32:46.388Z,62.14
2018-08-13T04:35:15.627Z,62.41
2018-08-13T04:37:45.764Z,62.41
2018-08-13T04:40:16.986Z,60.92
2018-08-13T04:42:47.387Z,62.46
2018-08-13T04:45:16.319Z,63.03
2018-08-13T04:47:51.275Z,62.18
2018-08-13T04:50:20.452Z,62.02
2018-08-13T04:52:49.435Z,60.78
2018-08-13T04:55:19.076Z,61.54
2018-08-13T04:57:48.094Z,61.86
2018-08-13T05:00:16.982Z,61.97
2018-08-13T05:02:45.827Z,61.63
2018-08-13T05:05:14.785Z,60.98
2018-08-13T05:07:43.588Z,61.93
2018-08-13T05:10:12.440Z,62.08
2018-08-13T05:12:41.687Z,61.69
2018-08-13T05:15:11.170Z,61.48
2018-08-13T05:17:40.146Z,60.05
2018-08-13T05:20:09.724Z,60.66
2018-08-13T05:22:38.577Z,60.82
2018-08-13T05:25:09.056Z,61.39
2018-08-13T05:27:38.356Z,60.54
2018-08-13T05:30:09.119Z,61.00
2018-08-13T05:32:38.004Z,60.58
2018-08-13T05:35:07.651Z,59.98
2018-08-13T05:37:36.995Z,60.87
2018-08-13T05:40:08.018Z,61.59
2018-08-13T05:42:37.124Z,59.63
2018-08-13T05:45:07.843Z,58.38
2018-08-13T05:47:36.780Z,59.55
2018-08-13T05:50:07.964Z,58.01
2018-08-13T05:52:36.916Z,58.22
2018-08-13T05:55:07.607Z,58.33
2018-08-13T05:57:36.588Z,57.26
2018-08-13T06:00:09.464Z,55.06
2018-08-13T06:02:40.247Z,55.71
2018-08-13T06:05:10.145Z,55.87
2018-08-13T06:07:39.381Z,55.82
2018-08-13T06:10:10.024Z,55.53
2018-08-13T06:12:39.211Z,54.66
2018-08-13T06:15:10.531Z,55.94
2018-08-13T06:17:39.568Z,56.82
2018-08-13T06:20:10.652Z,58.19
2018-08-13T06:22:40.816Z,57.67
2018-08-13T06:25:10.528Z,57.09
2018-08-13T06:27:39.532Z,58.34
2018-08-13T06:30:12.454Z,59.21
2018-08-13T06:32:41.803Z,60.21
2018-08-13T06:35:11.847Z,59.97
2018-08-13T06:37:41.657Z,59.53
2018-08-13T06:40:10.922Z,59.69
2018-08-13T06:42:40.006Z,59.06
2018-08-13T06:45:10.190Z,59.93
2018-08-13T06:47:39.931Z,58.40
2018-08-13T06:50:12.259Z,59.57
2018-08-13T06:52:41.331Z,58.08
2018-08-13T06:55:16.800Z,59.13
2018-08-13T06:57:45.672Z,58.32
2018-08-13T07:00:14.987Z,59.34
2018-08-13T07:02:43.950Z,58.49
2018-08-13T07:05:12.862Z,56.76
2018-08-13T07:07:41.985Z,56.49
2018-08-13T07:10:14.997Z,56.18
2018-08-13T07:12:45.248Z,56.84
2018-08-13T07:15:15.095Z,57.52
2018-08-13T07:17:44.036Z,56.79
2018-08-13T07:20:15.557Z,56.11
2018-08-13T07:22:44.624Z,54.79
2018-08-13T07:25:13.668Z,56.87
2018-08-13T07:27:42.806Z,55.87
2018-08-13T07:30:14.133Z,55.75
2018-08-13T07:32:43.499Z,55.71
2018-08-13T07:35:12.348Z,54.36
2018-08-13T07:37:41.392Z,54.63
2018-08-13T07:40:14.859Z,56.38
2018-08-13T07:42:44.246Z,56.10
2018-08-13T07:45:19.151Z,55.28
2018-08-13T07:47:48.007Z,54.66
2018-08-13T07:50:16.921Z,54.09
2018-08-13T07:52:45.832Z,53.51
2018-08-13T07:55:14.699Z,53.71
2018-08-13T07:57:43.626Z,53.42
2018-08-13T08:00:15.502Z,54.24
2018-08-13T08:02:44.685Z,53.66
2018-08-13T08:05:13.964Z,51.40
2018-08-13T08:07:42.962Z,53.03
2018-08-13T08:10:15.273Z,54.36
2018-08-13T08:12:44.284Z,53.49
2018-08-13T08:15:15.951Z,51.94
2018-08-13T08:17:44.979Z,54.71
2018-08-13T08:20:13.976Z,53.66
2018-08-13T08:22:42.844Z,51.26
2018-08-13T08:25:16.053Z,51.62
2018-08-13T08:27:45.506Z,51.70
2018-08-13T08:30:14.737Z,50.21
2018-08-13T08:32:43.592Z,51.16
2018-08-13T08:35:14.679Z,51.73
2018-08-13T08:37:43.786Z,50.24
2018-08-13T08:40:15.869Z,51.27
2018-08-13T08:42:45.332Z,50.30
2018-08-13T08:45:26.351Z,52.37
2018-08-13T08:47:56.188Z,53.15
2018-08-13T08:50:26.159Z,51.59
2018-08-13T08:52:55.040Z,52.40
2018-08-13T08:55:24.105Z,52.77
2018-08-13T08:57:52.999Z,51.21
2018-08-13T09:00:23.328Z,51.87
2018-08-13T09:02:52.504Z,51.68
2018-08-13T09:05:21.495Z,52.03
2018-08-13T09:07:50.347Z,50.44
2018-08-13T09:10:19.325Z,51.06
2018-08-13T09:12:48.252Z,50.99
2018-08-13T09:15:17.792Z,48.72
2018-08-13T09:18:03.504Z,49.11
2018-08-13T09:20:49.037Z,48.21
2018-08-13T09:23:34.735Z,49.20
2018-08-13T09:26:20.488Z,49.53
2018-08-13T09:29:06.192Z,47.81
2018-08-13T09:32:37.692Z,46.83
2018-08-13T09:35:18.312Z,47.42
2018-08-13T09:37:47.251Z,46.23
2018-08-13T09:40:16.144Z,46.61
2018-08-13T09:42:45.215Z,46.29
2018-08-13T09:45:14.088Z,45.64
2018-08-13T09:47:43.055Z,47.25
2018-08-13T09:50:14.798Z,47.44
2018-08-13T09:52:44.427Z,47.00
2018-08-13T09:55:13.995Z,46.49
2018-08-13T09:57:44.411Z,47.40
2018-08-13T10:00:20.470Z,47.06
2018-08-13T10:02:49.801Z,47.10
2018-08-13T10:05:18.691Z,45.62
2018-08-13T10:07:47.671Z,46.39
2018-08-13T10:10:17.327Z,49.38
2018-08-13T10:12:46.477Z,46.83
2018-08-13T10:15:15.539Z,47.08
2018-08-13T10:17:44.495Z,46.73
2018-08-13T10:20:19.868Z,47.10
2018-08-13T10:22:48.875Z,47.97
2018-08-13T10:25:17.811Z,46.78
2018-08-13T10:27:46.652Z,47.44
2018-08-13T10:30:16.846Z,46.95
2018-08-13T10:32:46.086Z,47.56
2018-08-13T10:35:15.120Z,47.84
2018-08-13T10:37:43.968Z,48.46
2018-08-13T10:40:16.616Z,48.71
2018-08-13T10:42:45.988Z,47.45
2018-08-13T10:45:15.388Z,46.21
2018-08-13T10:47:44.355Z,46.73
2018-08-13T10:50:14.461Z,46.10
2018-08-13T10:52:43.732Z,46.66
2018-08-13T10:55:14.161Z,48.12
2018-08-13T10:57:43.388Z,51.07
2018-08-13T11:00:16.552Z,54.66
2018-08-13T11:02:45.680Z,55.20
2018-08-13T11:05:15.451Z,56.55
2018-08-13T11:07:44.543Z,57.34
2018-08-13T11:10:14.870Z,58.17
2018-08-13T11:12:43.913Z,57.68
2018-08-13T11:15:18.082Z,57.16
2018-08-13T11:17:47.280Z,57.80
2018-08-13T11:20:16.666Z,57.13
2018-08-13T11:22:46.240Z,58.33
2018-08-13T11:25:16.140Z,58.95
2018-08-13T11:27:45.089Z,59.54
2018-08-13T11:30:16.340Z,59.90
2018-08-13T11:32:45.463Z,59.61
2018-08-13T11:35:15.676Z,59.64
2018-08-13T11:37:44.603Z,58.65
2018-08-13T11:40:14.773Z,58.22
2018-08-13T11:42:43.760Z,58.12
2018-08-13T11:45:18.727Z,59.02
2018-08-13T11:47:47.676Z,60.06
2018-08-13T11:50:17.851Z,58.86
2018-08-13T11:52:48.178Z,58.31
2018-08-13T11:55:17.731Z,58.53
2018-08-13T11:57:47.913Z,58.26
2018-08-13T12:00:16.921Z,57.52
2018-08-13T12:02:45.844Z,56.03
2018-08-13T12:05:15.541Z,55.51
2018-08-13T12:07:45.080Z,55.39
2018-08-13T12:10:14.631Z,55.93
2018-08-13T12:12:44.197Z,55.14
2018-08-13T12:15:13.744Z,53.35
2018-08-13T12:17:43.096Z,54.78
2018-08-13T12:20:17.108Z,52.63
2018-08-13T12:22:46.435Z,52.99
2018-08-13T12:25:23.290Z,52.57
2018-08-13T12:27:52.505Z,51.92
2018-08-13T12:30:21.579Z,52.13
2018-08-13T12:32:50.794Z,51.27
2018-08-13T12:35:20.033Z,52.10
2018-08-13T12:37:49.215Z,50.41
2018-08-13T12:54:37.451Z,50.13
2018-08-13T12:57:06.478Z,46.28
2018-08-13T12:59:35.287Z,47.75
2018-08-13T13:02:04.204Z,45.54
2018-08-13T13:04:33.020Z,44.98
2018-08-13T13:07:01.929Z,45.55
2018-08-13T13:09:30.776Z,44.44
2018-08-13T13:11:59.697Z,44.41
2018-08-13T13:14:28.500Z,45.77
2018-08-13T13:16:57.361Z,46.41
2018-08-13T13:19:26.171Z,46.85
2018-08-13T13:21:55.111Z,47.20
2018-08-13T13:24:23.908Z,47.41
2018-08-13T13:26:52.784Z,47.64
2018-08-13T13:29:21.583Z,47.16
2018-08-13T13:31:50.527Z,47.59
2018-08-13T13:34:19.488Z,48.40
2018-08-13T13:36:48.347Z,49.63
2018-08-13T13:39:17.160Z,50.14
2018-08-13T13:41:46.028Z,50.01
2018-08-13T13:44:14.869Z,49.71
2018-08-13T13:46:44.032Z,49.49
2018-08-13T13:49:12.924Z,51.10
2018-08-13T13:51:41.715Z,49.80
2018-08-13T13:54:10.652Z,51.88
2018-08-13T13:56:39.516Z,49.55
2018-08-13T13:59:08.570Z,49.91
2018-08-13T14:01:37.514Z,49.91
2018-08-13T14:04:06.471Z,47.71
2018-08-13T14:06:35.483Z,48.27
2018-08-13T14:09:08.344Z,48.10
2018-08-13T14:11:37.430Z,46.33
2018-08-13T14:14:07.243Z,48.67
2018-08-13T14:16:36.100Z,48.93
2018-08-13T14:19:05.464Z,47.66
2018-08-13T14:21:34.431Z,47.57
2018-08-13T14:24:03.826Z,47.32
2018-08-13T14:26:32.812Z,47.01
2018-08-13T14:29:01.720Z,47.25
2018-08-13T14:31:30.559Z,48.94
2018-08-13T14:33:59.431Z,48.59
2018-08-13T14:36:28.324Z,51.07
2018-08-13T14:38:57.167Z,49.62
2018-08-13T14:41:26.111Z,50.50
2018-08-13T14:43:54.976Z,49.00
2018-08-13T14:46:23.828Z,50.05
2018-08-13T14:48:52.917Z,50.48
2018-08-13T14:51:21.936Z,50.51
2018-08-13T14:53:50.744Z,51.97
2018-08-13T14:56:19.641Z,52.31
2018-08-13T14:58:48.484Z,52.26
2018-08-13T15:01:17.554Z,52.19
2018-08-13T15:03:46.384Z,51.51
2018-08-13T15:06:15.277Z,52.76
2018-08-13T15:08:44.048Z,52.15
2018-08-13T15:11:13.037Z,52.64
2018-08-13T15:13:41.988Z,51.65
2018-08-13T15:16:10.820Z,52.11
2018-08-13T15:18:39.635Z,52.37
2018-08-13T15:21:08.484Z,52.32
2018-08-13T15:23:37.386Z,53.08
2018-08-13T15:26:06.577Z,54.92
2018-08-13T15:28:35.390Z,59.36
2018-08-13T15:31:04.310Z,64.02
2018-08-13T15:33:33.184Z,64.80
2018-08-13T15:36:02.148Z,65.79
2018-08-13T15:38:31.071Z,69.53
2018-08-13T15:40:59.923Z,68.19
2018-08-13T15:43:28.807Z,69.32
2018-08-13T15:45:57.650Z,68.59
2018-08-13T15:48:26.468Z,69.00
2018-08-13T15:50:55.338Z,68.50
2018-08-13T15:53:24.251Z,70.39
2018-08-13T15:55:53.004Z,70.76
2018-08-13T15:58:21.836Z,70.84
2018-08-13T16:00:50.611Z,70.18
2018-08-13T16:03:19.578Z,72.50
2018-08-13T16:05:48.392Z,73.34
2018-08-13T16:08:17.250Z,73.04
2018-08-13T16:10:46.093Z,75.20
2018-08-13T16:13:14.959Z,75.43
2018-08-13T16:15:43.920Z,77.15
2018-08-13T16:18:12.900Z,76.81
2018-08-13T16:20:41.822Z,76.89
2018-08-13T16:23:10.699Z,78.33
2018-08-13T16:25:39.567Z,78.27
2018-08-13T16:28:08.592Z,78.01
2018-08-13T16:30:37.441Z,78.57
2018-08-13T16:33:06.585Z,77.22
2018-08-13T16:35:35.435Z,73.62
2018-08-13T16:38:05.361Z,73.34
2018-08-13T16:40:34.531Z,74.22
2018-08-13T16:43:03.527Z,76.69
2018-08-13T16:45:32.452Z,77.94
2018-08-13T16:48:01.382Z,79.89
2018-08-13T16:50:32.332Z,81.99
2018-08-13T16:53:02.087Z,82.90
2018-08-13T16:55:32.089Z,84.12
2018-08-13T16:58:02.223Z,85.14
2018-08-13T17:00:31.916Z,83.93
2018-08-13T17:03:01.556Z,85.67
2018-08-13T17:05:33.134Z,85.21
2018-08-13T17:08:02.163Z,84.38
2018-08-13T17:10:31.100Z,87.50
2018-08-13T17:13:00.248Z,88.07
2018-08-13T17:15:31.279Z,87.30
2018-08-13T17:18:01.894Z,86.73
2018-08-13T17:20:38.134Z,85.88
2018-08-13T17:23:07.019Z,86.15
2018-08-13T17:25:36.133Z,86.80
2018-08-13T17:28:05.480Z,86.38
2018-08-13T17:30:34.575Z,86.61
2018-08-13T17:33:03.585Z,89.00
2018-08-13T17:35:34.989Z,91.06
2018-08-13T17:38:07.247Z,89.87
2018-08-13T17:40:36.396Z,87.89
2018-08-13T17:43:07.366Z,89.88
2018-08-13T17:45:36.076Z,91.74
2018-08-13T17:48:06.956Z,89.66
2018-08-13T17:50:35.863Z,88.65
2018-08-13T17:53:06.092Z,89.95
2018-08-13T17:55:34.941Z,90.13
2018-08-13T17:58:03.904Z,88.79
2018-08-13T18:00:32.843Z,92.20
2018-08-13T18:03:01.715Z,91.40
2018-08-13T18:05:30.803Z,91.86
2018-08-13T18:08:00.195Z,94.67
2018-08-13T18:10:32.436Z,93.84
2018-08-13T18:13:03.041Z,92.52
2018-08-13T18:15:32.164Z,90.79
2018-08-13T18:18:02.012Z,90.40
2018-08-13T18:20:31.576Z,90.07
2018-08-13T18:23:00.633Z,90.15
2018-08-13T18:25:29.607Z,89.98
2018-08-13T18:27:58.688Z,89.99
2018-08-13T18:30:28.679Z,89.79
2018-08-13T18:32:58.173Z,90.56
2018-08-13T18:35:27.169Z,90.93
2018-08-13T18:37:56.236Z,89.68
2018-08-13T18:40:32.118Z,89.29
2018-08-13T18:43:00.978Z,89.79
2018-08-13T18:45:29.950Z,91.68
2018-08-13T18:47:59.695Z,90.42
2018-08-13T18:50:28.644Z,89.40
2018-08-13T18:52:57.483Z,90.56
2018-08-13T18:55:26.311Z,89.53
2018-08-13T18:57:55.302Z,89.17
2018-08-13T19:00:27.972Z,89.46
2018-08-13T19:02:58.784Z,90.70
2018-08-13T19:05:27.755Z,90.74
2018-08-13T19:07:56.664Z,90.67
2018-08-13T19:10:25.654Z,90.97
2018-08-13T19:12:54.469Z,91.03
2018-08-13T19:15:25.263Z,90.86
2018-08-13T19:17:54.362Z,90.38
2018-08-13T19:20:23.445Z,90.82
2018-08-13T19:22:52.411Z,91.54
2018-08-13T19:25:23.855Z,91.57
2018-08-13T19:27:52.821Z,91.73
2018-08-13T19:30:22.711Z,92.40
2018-08-13T19:32:52.193Z,91.94
2018-08-13T19:35:21.405Z,91.91
2018-08-13T19:37:50.520Z,92.04
2018-08-13T19:40:21.685Z,92.05
2018-08-13T19:42:51.021Z,91.93
2018-08-13T19:45:25.962Z,91.98
2018-08-13T19:47:54.823Z,92.44
2018-08-13T19:50:24.252Z,91.93
2018-08-13T19:52:53.101Z,92.52
2018-08-13T19:55:22.450Z,92.55
2018-08-13T19:57:51.405Z,92.48
2018-08-13T20:00:24.210Z,92.77
2018-08-13T20:02:53.423Z,92.58
2018-08-13T20:05:23.777Z,92.74
2018-08-13T20:07:53.492Z,92.65
2018-08-13T20:10:22.371Z,93.17
2018-08-13T20:12:51.452Z,93.42
2018-08-13T20:15:20.358Z,93.08
2018-08-13T20:17:49.243Z,92.67
2018-08-13T20:20:20.270Z,93.50
2018-08-13T20:22:49.628Z,93.37
2018-08-13T20:25:19.758Z,93.20
2018-08-13T20:27:49.911Z,93.47
2018-08-13T20:30:19.986Z,93.75
2018-08-13T20:32:50.057Z,93.46
2018-08-13T20:35:19.075Z,94.26
2018-08-13T20:37:48.048Z,93.72
2018-08-13T20:40:18.503Z,93.79
2018-08-13T20:42:48.069Z,94.49
2018-08-13T20:45:22.967Z,94.03
2018-08-13T20:47:51.816Z,94.03
2018-08-13T20:50:22.223Z,93.98
2018-08-13T20:52:52.595Z,94.51
2018-08-13T20:55:29.269Z,94.81
2018-08-13T20:57:58.199Z,94.25
2018-08-13T21:00:28.661Z,94.32
2018-08-13T21:02:57.706Z,94.81
2018-08-13T21:05:26.636Z,94.55
2018-08-13T21:07:55.563Z,94.78
2018-08-13T21:10:25.552Z,94.17
2018-08-13T21:12:54.535Z,93.77
2018-08-13T21:15:23.492Z,94.78
2018-08-13T21:17:52.391Z,94.22
2018-08-13T21:20:28.467Z,94.81
2018-08-13T21:22:57.533Z,95.47
2018-08-13T21:25:26.504Z,94.99
2018-08-13T21:27:55.523Z,95.54
2018-08-13T21:30:24.426Z,94.52
2018-08-13T21:32:53.296Z,95.21
2018-08-13T21:35:24.426Z,94.94
2018-08-13T21:37:53.408Z,94.44
2018-08-13T21:40:22.359Z,94.32
2018-08-13T21:42:51.727Z,94.33
2018-08-13T21:45:26.671Z,94.76
2018-08-13T21:47:55.640Z,94.79
2018-08-13T21:50:24.625Z,94.58
2018-08-13T21:52:53.508Z,94.26
2018-08-13T21:55:22.373Z,94.51
2018-08-13T21:57:51.267Z,95.35
2018-08-13T22:00:27.809Z,94.61
2018-08-13T22:02:59.093Z,94.56
2018-08-13T22:05:28.087Z,94.03
2018-08-13T22:07:57.075Z,93.89
2018-08-13T22:10:26.188Z,94.33
2018-08-13T22:12:55.080Z,93.71
2018-08-13T22:15:25.011Z,93.93
2018-08-13T22:17:55.379Z,92.39
2018-08-13T22:20:24.851Z,92.64
2018-08-13T22:22:54.479Z,93.12
2018-08-13T22:25:27.225Z,92.96
2018-08-13T22:27:56.259Z,92.66
2018-08-13T22:30:25.300Z,92.90
2018-08-13T22:32:54.294Z,92.68
2018-08-13T22:35:23.223Z,92.56
2018-08-13T22:37:52.099Z,92.73
2018-08-13T22:40:21.216Z,92.62
2018-08-13T22:42:50.281Z,92.68
2018-08-13T22:45:25.203Z,92.02
2018-08-13T22:47:54.104Z,93.04
2018-08-13T22:50:22.971Z,91.94
2018-08-13T22:52:51.873Z,92.25
2018-08-13T22:55:20.931Z,92.42
2018-08-13T22:57:49.983Z,91.83
2018-08-13T23:00:19.976Z,91.06
2018-08-13T23:02:49.872Z,91.59
2018-08-13T23:05:26.157Z,91.36
2018-08-13T23:07:55.155Z,91.22
2018-08-13T23:10:24.920Z,91.58
2018-08-13T23:12:56.092Z,91.27
2018-08-13T23:15:25.187Z,91.68
2018-08-13T23:17:54.512Z,91.06
2018-08-13T23:20:26.603Z,92.19
2018-08-13T23:22:59.778Z,92.52
2018-08-13T23:25:29.519Z,92.35
2018-08-13T23:27:59.595Z,91.84
2018-08-13T23:30:29.054Z,92.22
2018-08-13T23:32:59.111Z,92.16
2018-08-13T23:35:28.692Z,91.38
2018-08-13T23:37:57.756Z,92.19
2018-08-13T23:40:27.024Z,92.74
2018-08-13T23:42:56.084Z,92.55
2018-08-13T23:45:28.996Z,92.61
2018-08-13T23:47:57.884Z,92.27
2018-08-13T23:50:27.804Z,92.28
2018-08-13T23:52:59.648Z,93.15
2018-08-13T23:55:34.538Z,93.31
2018-08-13T23:58:05.060Z,93.80
